Terminal Aerodrome Forecast
Issued by NWS

Current Version | Previous Version | Graphics & Text | Print | Product List | Glossary On
Versions: 1 2 3 4 5 6 7 8 9 10 11 12 13 14 15 16 17 18 19 20 21 22
000
FTUS41 KPBZ 011011 AAA
TAFMGW
TAF AMD
KMGW 011011Z 0110/0206 00000KT P6SM SKC
      TEMPO 0111/0114 5SM BR
     FM011400 26004KT P6SM SCT040=

USA.gov is the U.S. government's official web portal to all federal, state and local government web resources and services.